| Record Date MM/DD/YYYY | Record Time HH:MM:SS | Record Julian Date NNN day of the year | Air Temperature Max (Degrees Fahrenheit F) | Time Max Air Temperature HH:MM:SS This is the time of max air temp for the prior hour interval listed for record [Time]. | Air Temperature Min (Degrees Fahrenheit F) | Time Min Air Temperature HH:MM:SS This is the time of min air temp for the prior hour interval listed for record [Time]. | Air Temperature Observed (Degrees Fahrenheit F) This is an instantaneous reading at the record [Time]. | Relative Humidity Max (Percent) | Time Max Relative Humidity HH:MM:SS This is the time of max relative humidity for the prior hour interval listed for record [Time]. | Relative Humidity Min (Percent) | Time Min Relative Humidity HH:MM:SS This is the time of min relative humidity for the prior hour interval listed for record [Time]. | Relative Humidity Observed (Percent) This is an instantaneous reading at the record [Time]. | Precipitation (Inches n.nn) rain fall that occurred during the prior hour interval listed for record [Time]. | Wind Speed (Miles Per Hour) Resultant Speed that occurred during the prior hour interval listed for record [Time]. | Wind Direction (Degrees) Resultant Direction that occurred during the prior hour interval listed for record [Time]. | Solar Radiation (Langley's) that occurred during the prior hour interval listed for record [Time]. | Soil Temperature Average at 2 inch depth (Degrees Fahrenheit F) that occurred during the prior hour interval listed for record [Time]. | Soil Temperature Observed at 2 inch depth (Degrees Fahrenheit F) This is an instantaneous reading at the record [Time]. | Soil Temperature Average at 4 inch depth (Degrees Fahrenheit F) that occurred during the prior hour interval listed for record [Time]. | Soil Temperature Observed at 4 inch depth (Degrees Fahrenheit F) This is an instantaneous reading at the record [Time]. |
|---|---|---|---|---|---|---|---|---|---|---|---|---|---|---|---|---|---|---|---|---|
| 04/30/2026 | 0:00:00 | 120 | 65 | 23:00:00 | 64 | 23:54:00 | 64 | 86 | 23:52:04 | 81 | 23:13:03 | 84.9 | 0 | 7.1 | 25 | 0 | 68 | 68 | 70 | 70 |
| 04/30/2026 | 1:00:00 | 120 | 64 | 0:00:00 | 62 | 0:35:03 | 62 | 96 | 0:49:05 | 85 | 0:01:00 | 94.9 | 0.26 | 3.9 | 347 | 0 | 67 | 67 | 69 | 69 |
| 04/30/2026 | 2:00:00 | 120 | 62 | 1:05:03 | 61 | 1:29:03 | 61 | 96 | 1:27:04 | 94 | 1:04:03 | 95 | 0.2 | 4.4 | 360 | 0 | 67 | 67 | 69 | 69 |
| 04/30/2026 | 3:00:00 | 120 | 62 | 2:20:01 | 61 | 2:56:05 | 61 | 95 | 2:00:05 | 93 | 2:39:05 | 94.1 | 0 | 4.4 | 2 | 0 | 66 | 66 | 69 | 68 |
| 04/30/2026 | 4:00:00 | 120 | 61 | 3:00:01 | 60 | 3:58:05 | 61 | 94 | 3:05:04 | 89 | 4:00:00 | 89 | 0 | 7.0 | 12 | 0 | 66 | 66 | 68 | 68 |
| 04/30/2026 | 5:00:00 | 120 | 61 | 4:03:00 | 60 | 4:58:00 | 60 | 90 | 4:12:00 | 85 | 4:44:03 | 86.6 | 0 | 9.1 | 18 | 0 | 66 | 65 | 68 | 68 |
| 04/30/2026 | 6:00:00 | 120 | 60 | 5:00:01 | 59 | 5:59:03 | 59 | 87 | 5:11:00 | 83 | 5:54:04 | 84.1 | 0 | 9.4 | 24 | 0 | 65 | 64 | 67 | 67 |
| 04/30/2026 | 7:00:00 | 120 | 59 | 6:59:03 | 58 | 6:33:02 | 59 | 85 | 6:11:01 | 79 | 6:56:03 | 80.5 | 0 | 10.3 | 29 | 11 | 64 | 64 | 67 | 67 |
| 04/30/2026 | 8:00:00 | 120 | 60 | 7:58:03 | 58 | 7:14:00 | 60 | 82 | 7:08:01 | 76 | 7:54:01 | 78.31 | 0 | 9.8 | 40 | 26 | 64 | 64 | 66 | 66 |
| 04/30/2026 | 9:00:00 | 120 | 62 | 8:46:00 | 60 | 8:07:00 | 62 | 81 | 8:25:01 | 71 | 8:48:01 | 72.68 | 0 | 10.0 | 45 | 48 | 64 | 65 | 66 | 66 |
| 04/30/2026 | 10:00:00 | 120 | 64 | 10:00:00 | 62 | 9:00:00 | 64 | 78 | 9:03:04 | 68 | 9:57:01 | 72.92 | 0 | 9.5 | 50 | 58 | 66 | 67 | 66 | 67 |
| 04/30/2026 | 11:00:00 | 120 | 67 | 10:54:02 | 64 | 10:07:00 | 66 | 75 | 10:01:05 | 64 | 10:31:00 | 67.57 | 0 | 7.3 | 53 | 71 | 69 | 70 | 67 | 68 |
| 04/30/2026 | 12:00:00 | 120 | 69 | 11:39:04 | 66 | 11:04:05 | 68 | 74 | 11:30:05 | 59 | 11:50:05 | 68.24 | 0 | 8.1 | 35 | 85 | 72 | 73 | 69 | 69 |
| 04/30/2026 | 13:00:00 | 120 | 69 | 12:28:05 | 67 | 12:42:00 | 68 | 72 | 12:01:04 | 59 | 12:33:03 | 63.66 | 0 | 8.2 | 15 | 68 | 74 | 75 | 70 | 71 |
| 04/30/2026 | 14:00:00 | 120 | 69 | 13:12:00 | 67 | 13:58:02 | 67 | 72 | 13:08:00 | 59 | 13:13:02 | 63.44 | 0 | 8.6 | 17 | 44 | 75 | 74 | 71 | 72 |
| 04/30/2026 | 15:00:00 | 120 | 67 | 14:03:03 | 66 | 14:18:03 | 67 | 70 | 14:23:00 | 61 | 14:36:05 | 64.69 | 0 | 7.5 | 16 | 24 | 73 | 72 | 72 | 72 |
| 04/30/2026 | 16:00:00 | 120 | 67 | 15:15:05 | 66 | 15:47:00 | 66 | 70 | 15:16:00 | 61 | 15:01:05 | 65.92 | 0 | 6.0 | 23 | 19 | 72 | 71 | 71 | 71 |
| 04/30/2026 | 17:00:00 | 120 | 66 | 16:00:00 | 66 | 16:43:00 | 66 | 71 | 16:46:00 | 63 | 16:02:03 | 65.13 | 0 | 4.7 | 16 | 11 | 71 | 70 | 71 | 71 |
| 04/30/2026 | 18:00:00 | 120 | 66 | 17:02:04 | 65 | 17:59:03 | 65 | 74 | 17:45:03 | 64 | 17:02:02 | 73.46 | 0 | 3.6 | 21 | 6 | 69 | 69 | 70 | 70 |
| 04/30/2026 | 19:00:00 | 120 | 65 | 18:00:00 | 63 | 18:59:05 | 63 | 75 | 18:06:05 | 70 | 18:40:05 | 74.11 | 0 | 4.1 | 18 | 1 | 68 | 68 | 70 | 70 |
| 04/30/2026 | 20:00:00 | 120 | 63 | 19:00:02 | 62 | 19:58:04 | 62 | 81 | 19:59:05 | 72 | 19:04:03 | 80.2 | 0 | 2.7 | 30 | 0 | 67 | 67 | 69 | 69 |
| 04/30/2026 | 21:00:00 | 120 | 62 | 20:01:00 | 61 | 20:47:01 | 61 | 84 | 20:33:00 | 79 | 20:00:03 | 79.6 | 0 | 2.9 | 38 | 0 | 66 | 66 | 69 | 68 |
| 04/30/2026 | 22:00:00 | 120 | 61 | 21:00:03 | 59 | 21:56:02 | 59 | 87 | 21:55:00 | 79 | 21:17:00 | 84.9 | 0 | 2.5 | 43 | 0 | 65 | 65 | 68 | 68 |
| 04/30/2026 | 23:00:00 | 120 | 60 | 22:32:00 | 59 | 22:59:00 | 59 | 86 | 22:13:02 | 81 | 22:36:03 | 84.1 | 0 | 3.1 | 13 | 0 | 65 | 64 | 67 | 67 |
| 05/01/2026 | 0:00:00 | 121 | 59 | 23:11:05 | 58 | 23:47:02 | 59 | 84 | 23:01:02 | 78 | 23:56:03 | 78.94 | 0 | 4.6 | 26 | 0 | 64 | 64 | 67 | 66 |
| 05/01/2026 | 1:00:00 | 121 | 59 | 0:00:00 | 57 | 0:56:04 | 57 | 86 | 0:55:05 | 78 | 0:24:05 | 84.7 | 0 | 4.4 | 30 | 0 | 63 | 63 | 66 | 66 |
| 05/01/2026 | 2:00:00 | 121 | 58 | 1:13:02 | 57 | 1:49:02 | 57 | 85 | 1:00:00 | 79 | 1:25:05 | 81.3 | 0 | 4.1 | 18 | 0 | 63 | 62 | 66 | 65 |
| 05/01/2026 | 3:00:00 | 121 | 57 | 2:18:00 | 57 | 2:37:05 | 57 | 82 | 2:04:01 | 78 | 2:53:01 | 80.8 | 0 | 3.8 | 28 | 0 | 62 | 62 | 65 | 65 |
| 05/01/2026 | 4:00:00 | 121 | 57 | 3:03:00 | 56 | 4:00:00 | 56 | 86 | 3:59:02 | 79 | 3:25:02 | 86.1 | 0 | 3.1 | 44 | 0 | 62 | 62 | 65 | 64 |
| 05/01/2026 | 5:00:00 | 121 | 56 | 4:25:01 | 56 | 4:46:02 | 56 | 88 | 4:16:02 | 83 | 4:24:02 | 84 | 0 | 2.8 | 360 | 0 | 62 | 61 | 64 | 64 |
| 05/01/2026 | 6:00:00 | 121 | 56 | 5:00:05 | 56 | 5:45:03 | 56 | 85 | 5:54:00 | 82 | 5:15:04 | 83.7 | 0 | 3.6 | 16 | 0 | 61 | 61 | 64 | 64 |
| 05/01/2026 | 7:00:00 | 121 | 57 | 6:59:02 | 56 | 6:00:03 | 57 | 86 | 6:46:05 | 81 | 6:31:00 | 82.7 | 0 | 4.1 | 6 | 5 | 61 | 61 | 64 | 64 |
| 05/01/2026 | 8:00:00 | 121 | 58 | 7:53:03 | 57 | 7:01:00 | 58 | 85 | 7:04:04 | 75 | 7:57:01 | 76.99 | 0 | 5.9 | 25 | 11 | 61 | 61 | 63 | 63 |
| 05/01/2026 | 9:00:00 | 121 | 59 | 8:58:02 | 58 | 8:00:03 | 59 | 80 | 8:58:00 | 74 | 8:52:04 | 75.8 | 0 | 4.8 | 18 | 15 | 62 | 62 | 63 | 63 |
| 05/01/2026 | 10:00:00 | 121 | 60 | 9:57:03 | 59 | 9:00:02 | 60 | 79 | 9:26:04 | 73 | 9:59:01 | 72.73 | 0 | 4.9 | 13 | 20 | 62 | 63 | 64 | 64 |
| 05/01/2026 | 11:00:00 | 121 | 61 | 10:59:00 | 60 | 10:01:02 | 61 | 76 | 10:11:05 | 65 | 10:30:05 | 68.83 | 0 | 7.1 | 33 | 28 | 63 | 64 | 64 | 64 |
| 05/01/2026 | 12:00:00 | 121 | 62 | 11:38:00 | 61 | 11:01:00 | 62 | 72 | 11:59:01 | 66 | 11:30:05 | 67.29 | 0 | 4.6 | 20 | 19 | 64 | 64 | 64 | 65 |
| 05/01/2026 | 13:00:00 | 121 | 62 | 12:48:03 | 62 | 12:07:02 | 62 | 73 | 12:43:00 | 66 | 12:52:00 | 70.56 | 0 | 4.5 | 8 | 20 | 65 | 65 | 65 | 65 |
| 05/01/2026 | 14:00:00 | 121 | 63 | 13:49:02 | 62 | 13:01:01 | 63 | 73 | 13:06:05 | 65 | 13:37:04 | 67.05 | 0 | 5.1 | 29 | 25 | 65 | 65 | 65 | 65 |
| 05/01/2026 | 15:00:00 | 121 | 63 | 14:46:05 | 63 | 14:08:01 | 63 | 74 | 14:26:03 | 64 | 14:49:04 | 66.94 | 0 | 6.0 | 32 | 26 | 66 | 66 | 65 | 66 |
| 05/01/2026 | 16:00:00 | 121 | 63 | 15:00:03 | 63 | 15:20:05 | 63 | 73 | 15:48:02 | 66 | 15:02:00 | 70.97 | 0 | 4.9 | 21 | 18 | 66 | 66 | 66 | 66 |
| 05/01/2026 | 17:00:00 | 121 | 64 | 16:13:04 | 63 | 16:59:00 | 63 | 76 | 16:51:05 | 69 | 16:03:04 | 75.01 | 0 | 3.2 | 67 | 15 | 66 | 66 | 66 | 66 |
| 05/01/2026 | 18:00:00 | 121 | 63 | 17:12:01 | 62 | 17:58:04 | 62 | 82 | 17:53:02 | 71 | 17:15:04 | 79.42 | 0 | 2.5 | 57 | 5 | 66 | 66 | 66 | 66 |
| 05/01/2026 | 19:00:00 | 121 | 62 | 18:08:04 | 60 | 18:50:01 | 61 | 91 | 18:59:01 | 79 | 18:04:00 | 90.1 | 0 | 1.2 | 133 | 1 | 65 | 65 | 66 | 66 |
| 05/01/2026 | 20:00:00 | 121 | 61 | 19:52:02 | 60 | 19:41:02 | 61 | 90 | 19:39:05 | 79 | 19:51:04 | 81.6 | 0 | 2.0 | 312 | 0 | 64 | 64 | 66 | 66 |
| 05/01/2026 | 21:00:00 | 121 | 61 | 20:24:04 | 60 | 20:59:05 | 60 | 82 | 20:01:04 | 70 | 20:57:05 | 70.73 | 0 | 4.6 | 351 | 0 | 64 | 63 | 65 | 65 |
| 05/01/2026 | 22:00:00 | 121 | 60 | 21:01:01 | 59 | 21:58:02 | 59 | 74 | 21:44:05 | 69 | 21:22:04 | 72.02 | 0 | 4.8 | 354 | 0 | 63 | 62 | 65 | 65 |
| 05/01/2026 | 23:00:00 | 121 | 59 | 22:00:04 | 59 | 22:59:03 | 59 | 76 | 22:59:00 | 71 | 22:00:01 | 75.6 | 0 | 4.3 | 355 | 0 | 62 | 61 | 64 | 64 |
| 05/02/2026 | 0:00:00 | 122 | 59 | 23:02:04 | 58 | 23:47:05 | 58 | 79 | 23:47:01 | 74 | 23:02:03 | 76.88 | 0 | 3.1 | 354 | 0 | 61 | 61 | 64 | 63 |
| 05/02/2026 | 1:00:00 | 122 | 58 | 0:03:01 | 58 | 0:46:04 | 58 | 78 | 0:05:01 | 73 | 0:57:00 | 73.75 | 0 | 4.7 | 4 | 0 | 61 | 60 | 63 | 63 |
| 05/02/2026 | 2:00:00 | 122 | 58 | 1:21:02 | 57 | 2:00:00 | 57 | 75 | 1:59:04 | 69 | 1:21:00 | 73.91 | 0 | 5.1 | 25 | 0 | 60 | 60 | 63 | 63 |
| 05/02/2026 | 3:00:00 | 122 | 57 | 2:02:00 | 56 | 2:42:04 | 56 | 78 | 2:26:05 | 71 | 2:56:04 | 71.97 | 0 | 3.5 | 43 | 0 | 60 | 59 | 62 | 62 |
| 05/02/2026 | 4:00:00 | 122 | 56 | 3:00:04 | 54 | 3:57:03 | 54 | 74 | 3:57:00 | 69 | 3:21:03 | 72.99 | 0 | 4.1 | 20 | 0 | 59 | 59 | 62 | 62 |
| 05/02/2026 | 5:00:00 | 122 | 54 | 4:00:00 | 52 | 4:56:04 | 53 | 79 | 4:58:03 | 72 | 4:24:03 | 77.81 | 0 | 2.1 | 359 | 0 | 58 | 58 | 62 | 61 |
| 05/02/2026 | 6:00:00 | 122 | 53 | 6:00:00 | 52 | 5:29:02 | 53 | 82 | 5:29:00 | 75 | 5:50:04 | 76.33 | 0 | 2.3 | 354 | 2 | 57 | 57 | 61 | 61 |
| 05/02/2026 | 7:00:00 | 122 | 55 | 6:59:02 | 53 | 6:01:04 | 55 | 79 | 6:31:01 | 73 | 6:52:05 | 73.72 | 0 | 2.7 | 359 | 14 | 57 | 57 | 61 | 60 |
| 05/02/2026 | 8:00:00 | 122 | 59 | 7:59:00 | 55 | 7:00:00 | 59 | 75 | 7:01:00 | 61 | 7:59:03 | 62.55 | 0 | 4.7 | 28 | 33 | 58 | 59 | 60 | 60 |
| 05/02/2026 | 9:00:00 | 122 | 63 | 8:57:05 | 59 | 8:05:00 | 63 | 68 | 8:11:03 | 54 | 8:58:02 | 56.68 | 0 | 4.7 | 35 | 51 | 59 | 60 | 61 | 61 |
| 05/02/2026 | 10:00:00 | 122 | 65 | 10:00:00 | 63 | 9:01:03 | 65 | 61 | 9:02:02 | 44 | 9:58:03 | 55.34 | 0 | 4.9 | 352 | 67 | 62 | 64 | 61 | 62 |
| 05/02/2026 | 11:00:00 | 122 | 67 | 10:57:02 | 65 | 10:07:04 | 67 | 56 | 10:25:03 | 41 | 10:54:01 | 47.48 | 0 | 6.5 | 345 | 79 | 65 | 67 | 62 | 63 |
| 05/02/2026 | 12:00:00 | 122 | 69 | 11:52:03 | 66 | 11:01:04 | 68 | 53 | 11:11:00 | 36 | 11:59:03 | 39.23 | 0 | 7.2 | 333 | 85 | 68 | 70 | 64 | 65 |
| 05/02/2026 | 13:00:00 | 122 | 71 | 12:53:02 | 68 | 12:00:01 | 69 | 46 | 12:18:04 | 36 | 12:27:01 | 41.59 | 0 | 8.2 | 336 | 85 | 71 | 73 | 66 | 67 |
| 05/02/2026 | 14:00:00 | 122 | 72 | 13:44:03 | 68 | 13:17:01 | 71 | 46 | 13:18:05 | 36 | 13:55:02 | 40.02 | 0 | 7.1 | 332 | 87 | 74 | 76 | 68 | 69 |
| 05/02/2026 | 15:00:00 | 122 | 72 | 14:20:04 | 70 | 14:51:03 | 70 | 43 | 14:20:01 | 35 | 14:42:01 | 38.42 | 0 | 7.2 | 335 | 58 | 77 | 77 | 70 | 71 |
| 05/02/2026 | 16:00:00 | 122 | 72 | 15:53:00 | 70 | 15:01:02 | 72 | 43 | 15:15:05 | 35 | 15:45:02 | 37.23 | 0 | 6.4 | 327 | 50 | 76 | 76 | 71 | 72 |
| 05/02/2026 | 17:00:00 | 122 | 72 | 16:24:01 | 71 | 16:59:02 | 71 | 43 | 16:54:01 | 35 | 16:04:05 | 37.82 | 0 | 7.5 | 314 | 44 | 76 | 76 | 72 | 72 |
| 05/02/2026 | 18:00:00 | 122 | 72 | 17:10:00 | 70 | 17:35:00 | 70 | 45 | 17:58:01 | 37 | 17:14:05 | 42.78 | 0 | 6.4 | 316 | 23 | 76 | 75 | 72 | 72 |
| 05/02/2026 | 19:00:00 | 122 | 70 | 18:00:02 | 67 | 18:59:03 | 67 | 54 | 18:59:03 | 42 | 18:01:04 | 53.3 | 0 | 4.1 | 336 | 5 | 74 | 73 | 72 | 72 |
| 05/02/2026 | 20:00:00 | 122 | 67 | 19:00:00 | 60 | 20:00:00 | 60 | 77 | 19:59:00 | 52 | 19:00:05 | 76.76 | 0 | 0.9 | 355 | 0 | 71 | 70 | 71 | 71 |
| 05/02/2026 | 21:00:00 | 122 | 60 | 20:00:00 | 58 | 20:56:05 | 58 | 86 | 20:59:03 | 77 | 20:00:00 | 85.6 | 0 | 0.7 | 142 | 0 | 69 | 68 | 70 | 70 |
| 05/02/2026 | 22:00:00 | 122 | 58 | 21:00:00 | 55 | 21:59:05 | 55 | 90 | 21:59:00 | 83 | 21:09:03 | 89.9 | 0 | 0.6 | 90 | 0 | 67 | 66 | 69 | 69 |
| 05/02/2026 | 23:00:00 | 122 | 55 | 22:00:01 | 54 | 22:59:05 | 54 | 93 | 22:59:05 | 90 | 22:00:01 | 93.3 | 0 | 0.9 | 38 | 0 | 65 | 65 | 68 | 68 |
| 05/03/2026 | 0:00:00 | 123 | 54 | 23:00:01 | 52 | 23:44:02 | 52 | 95 | 23:52:03 | 93 | 23:01:01 | 95 | 0 | 0.9 | 84 | 0 | 64 | 63 | 67 | 67 |
| 05/03/2026 | 1:00:00 | 123 | 52 | 0:01:01 | 51 | 0:38:02 | 52 | 96 | 0:50:02 | 94 | 1:00:00 | 93.7 | 0 | 2.3 | 51 | 0 | 63 | 62 | 66 | 66 |
| 05/03/2026 | 2:00:00 | 123 | 54 | 1:14:04 | 52 | 1:59:04 | 52 | 94 | 1:00:00 | 77 | 1:21:05 | 83.8 | 0 | 5.1 | 53 | 0 | 62 | 61 | 65 | 65 |
| 05/03/2026 | 3:00:00 | 123 | 52 | 2:00:00 | 51 | 3:00:00 | 51 | 85 | 2:16:05 | 82 | 2:54:03 | 84.3 | 0 | 3.4 | 61 | 0 | 60 | 60 | 64 | 64 |
| 05/03/2026 | 4:00:00 | 123 | 51 | 3:00:00 | 49 | 3:58:03 | 49 | 88 | 4:00:00 | 84 | 3:15:00 | 87.9 | 0 | 1.4 | 60 | 0 | 59 | 59 | 63 | 63 |
| 05/03/2026 | 5:00:00 | 123 | 49 | 4:00:00 | 48 | 4:46:02 | 48 | 92 | 4:42:04 | 88 | 4:00:00 | 91.1 | 0 | 0.9 | 147 | 0 | 59 | 58 | 63 | 62 |
| 05/03/2026 | 6:00:00 | 123 | 49 | 5:59:03 | 47 | 5:22:03 | 49 | 93 | 5:26:04 | 91 | 5:00:00 | 92.1 | 0 | 1.2 | 110 | 2 | 58 | 57 | 62 | 62 |
| 05/03/2026 | 7:00:00 | 123 | 55 | 7:00:00 | 49 | 6:00:01 | 55 | 92 | 6:00:00 | 77 | 6:57:05 | 77.66 | 0 | 2.3 | 113 | 14 | 57 | 58 | 61 | 61 |
| 05/03/2026 | 8:00:00 | 123 | 60 | 7:58:03 | 55 | 7:00:03 | 60 | 78 | 7:00:01 | 61 | 7:59:03 | 62.19 | 0 | 5.8 | 120 | 32 | 58 | 59 | 61 | 61 |
| 05/03/2026 | 9:00:00 | 123 | 64 | 8:56:01 | 60 | 8:00:00 | 64 | 67 | 8:02:04 | 53 | 8:59:00 | 54.15 | 0 | 6.6 | 131 | 51 | 59 | 60 | 61 | 61 |
| 05/03/2026 | 10:00:00 | 123 | 68 | 9:52:03 | 64 | 9:00:01 | 67 | 58 | 9:31:04 | 49 | 9:50:05 | 50.15 | 0 | 7.6 | 141 | 67 | 62 | 64 | 62 | 62 |
| 05/03/2026 | 11:00:00 | 123 | 71 | 10:43:02 | 67 | 10:04:02 | 70 | 54 | 10:09:01 | 44 | 10:49:01 | 47.27 | 0 | 5.8 | 164 | 79 | 67 | 69 | 63 | 64 |
| 05/03/2026 | 12:00:00 | 123 | 74 | 11:58:01 | 70 | 11:02:01 | 73 | 50 | 11:30:01 | 39 | 11:59:05 | 38.79 | 0 | 4.9 | 176 | 86 | 71 | 74 | 65 | 67 |
| 05/03/2026 | 13:00:00 | 123 | 75 | 12:28:05 | 72 | 12:16:05 | 74 | 44 | 12:24:03 | 34 | 12:33:04 | 39.18 | 0 | 4.7 | 224 | 87 | 76 | 77 | 68 | 69 |
| 05/03/2026 | 14:00:00 | 123 | 76 | 13:34:04 | 73 | 13:06:05 | 74 | 42 | 13:57:02 | 36 | 13:04:02 | 39.6 | 0 | 4.7 | 261 | 82 | 79 | 80 | 70 | 72 |
| 05/03/2026 | 15:00:00 | 123 | 76 | 14:52:01 | 74 | 14:00:00 | 76 | 42 | 14:56:01 | 37 | 14:13:00 | 38.22 | 0 | 6.4 | 260 | 72 | 81 | 81 | 73 | 73 |
| 05/03/2026 | 16:00:00 | 123 | 77 | 15:53:03 | 75 | 15:02:01 | 77 | 43 | 15:51:05 | 37 | 15:01:02 | 40.18 | 0 | 5.9 | 250 | 58 | 81 | 81 | 74 | 75 |
| 05/03/2026 | 17:00:00 | 123 | 79 | 16:38:01 | 76 | 16:16:04 | 77 | 43 | 16:16:05 | 35 | 16:59:05 | 35.86 | 0 | 4.0 | 237 | 41 | 81 | 80 | 75 | 75 |
| 05/03/2026 | 18:00:00 | 123 | 77 | 17:12:01 | 76 | 17:56:02 | 76 | 41 | 17:58:02 | 35 | 17:02:04 | 39.42 | 0 | 5.4 | 256 | 22 | 80 | 79 | 75 | 75 |
| 05/03/2026 | 19:00:00 | 123 | 76 | 18:00:00 | 70 | 18:59:03 | 70 | 56 | 18:58:03 | 38 | 18:09:00 | 53.99 | 0 | 2.7 | 215 | 5 | 77 | 76 | 75 | 75 |
| 05/03/2026 | 20:00:00 | 123 | 70 | 19:00:00 | 64 | 19:58:02 | 64 | 72 | 19:53:01 | 54 | 19:00:00 | 69.66 | 0 | 2.2 | 156 | 0 | 75 | 73 | 74 | 74 |
| 05/03/2026 | 21:00:00 | 123 | 64 | 20:00:01 | 62 | 21:00:00 | 62 | 78 | 20:14:01 | 70 | 20:00:01 | 77.24 | 0 | 1.8 | 143 | 0 | 72 | 71 | 73 | 73 |
| 05/03/2026 | 22:00:00 | 123 | 62 | 21:00:00 | 60 | 21:39:01 | 61 | 84 | 21:37:04 | 77 | 21:12:01 | 81.9 | 0 | 2.1 | 149 | 0 | 70 | 70 | 72 | 71 |
| 05/03/2026 | 23:00:00 | 123 | 61 | 22:20:00 | 60 | 22:42:04 | 61 | 82 | 22:00:02 | 79 | 22:19:00 | 79.18 | 0 | 2.5 | 148 | 0 | 69 | 68 | 71 | 70 |
| 05/04/2026 | 0:00:00 | 124 | 61 | 23:01:04 | 60 | 23:58:01 | 60 | 81 | 23:55:04 | 79 | 23:00:05 | 80.7 | 0 | 3.2 | 135 | 0 | 67 | 67 | 70 | 69 |
| 05/04/2026 | 1:00:00 | 124 | 60 | 0:04:05 | 59 | 0:27:03 | 59 | 82 | 0:26:03 | 80 | 0:05:04 | 81.6 | 0 | 3.1 | 142 | 0 | 66 | 66 | 69 | 68 |
| 05/04/2026 | 2:00:00 | 124 | 59 | 1:13:02 | 59 | 1:58:02 | 59 | 83 | 1:57:05 | 80 | 1:14:02 | 82.3 | 0 | 3.6 | 139 | 0 | 65 | 65 | 68 | 68 |
| 05/04/2026 | 3:00:00 | 124 | 59 | 2:01:05 | 58 | 2:33:01 | 58 | 85 | 2:32:05 | 82 | 2:01:03 | 84.2 | 0 | 3.2 | 139 | 0 | 65 | 64 | 67 | 67 |
| 05/04/2026 | 4:00:00 | 124 | 58 | 3:06:01 | 58 | 3:59:05 | 58 | 86 | 3:38:02 | 84 | 3:08:04 | 85.3 | 0 | 2.9 | 147 | 0 | 64 | 63 | 67 | 66 |
| 05/04/2026 | 5:00:00 | 124 | 58 | 4:13:05 | 57 | 4:55:02 | 57 | 87 | 4:56:05 | 85 | 4:14:00 | 86.5 | 0 | 2.9 | 141 | 0 | 63 | 63 | 66 | 66 |
| 05/04/2026 | 6:00:00 | 124 | 59 | 5:59:03 | 57 | 5:14:02 | 59 | 87 | 5:14:03 | 83 | 5:48:05 | 83.5 | 0 | 3.3 | 140 | 2 | 62 | 62 | 65 | 65 |
| 05/04/2026 | 7:00:00 | 124 | 62 | 6:59:05 | 59 | 6:00:00 | 62 | 84 | 6:11:05 | 79 | 6:59:02 | 80.2 | 0 | 4.8 | 146 | 14 | 62 | 62 | 65 | 65 |
| 05/04/2026 | 8:00:00 | 124 | 67 | 7:55:00 | 62 | 7:00:01 | 67 | 80 | 7:00:00 | 69 | 7:55:05 | 69.58 | 0 | 5.2 | 197 | 33 | 63 | 64 | 65 | 65 |
| 05/04/2026 | 9:00:00 | 124 | 71 | 8:56:02 | 67 | 8:01:05 | 71 | 73 | 8:02:02 | 63 | 8:58:05 | 64.54 | 0 | 7.8 | 214 | 50 | 64 | 65 | 65 | 65 |
| 05/04/2026 | 10:00:00 | 124 | 75 | 9:59:01 | 71 | 9:00:00 | 75 | 66 | 9:02:00 | 53 | 9:59:03 | 53.54 | 0 | 8.3 | 209 | 60 | 67 | 69 | 66 | 66 |
| 05/04/2026 | 11:00:00 | 124 | 78 | 10:56:01 | 74 | 10:11:00 | 77 | 56 | 10:01:02 | 48 | 10:54:05 | 49.71 | 0 | 10.9 | 213 | 78 | 71 | 73 | 67 | 68 |
| 05/04/2026 | 12:00:00 | 124 | 79 | 11:17:04 | 76 | 11:04:02 | 78 | 51 | 11:04:04 | 42 | 11:58:00 | 43.39 | 0 | 11.6 | 214 | 84 | 74 | 76 | 69 | 70 |
| 05/04/2026 | 13:00:00 | 124 | 80 | 12:35:05 | 77 | 12:02:04 | 79 | 47 | 12:07:02 | 41 | 12:46:02 | 43.14 | 0 | 11.6 | 205 | 84 | 78 | 79 | 71 | 72 |
| 05/04/2026 | 14:00:00 | 124 | 81 | 13:32:02 | 78 | 13:11:01 | 80 | 45 | 13:02:02 | 40 | 13:30:03 | 41.28 | 0 | 11.5 | 208 | 80 | 80 | 81 | 73 | 74 |
| 05/04/2026 | 15:00:00 | 124 | 81 | 14:51:01 | 79 | 14:22:02 | 80 | 44 | 14:50:05 | 39 | 14:02:00 | 42.64 | 0 | 12.3 | 195 | 72 | 81 | 82 | 75 | 75 |
| 05/04/2026 | 16:00:00 | 124 | 81 | 15:05:02 | 79 | 15:54:01 | 79 | 45 | 15:23:01 | 41 | 15:57:02 | 42.25 | 0 | 13.0 | 193 | 56 | 82 | 82 | 76 | 76 |
| 05/04/2026 | 17:00:00 | 124 | 79 | 16:05:03 | 78 | 16:58:00 | 78 | 46 | 16:46:02 | 41 | 16:07:00 | 45.55 | 0 | 11.9 | 193 | 36 | 81 | 81 | 77 | 77 |
| 05/04/2026 | 18:00:00 | 124 | 79 | 17:10:01 | 76 | 17:55:01 | 76 | 48 | 17:49:03 | 43 | 17:15:00 | 47.68 | 0 | 11.7 | 198 | 21 | 80 | 79 | 77 | 77 |
| 05/04/2026 | 19:00:00 | 124 | 76 | 18:01:01 | 73 | 18:58:00 | 73 | 55 | 18:57:03 | 48 | 18:01:05 | 54.59 | 0 | 8.4 | 203 | 4 | 78 | 77 | 76 | 76 |
| 05/04/2026 | 20:00:00 | 124 | 73 | 19:00:01 | 70 | 19:58:02 | 70 | 59 | 19:56:04 | 54 | 19:00:01 | 58.61 | 0 | 4.8 | 194 | 0 | 76 | 75 | 76 | 75 |
| 05/04/2026 | 21:00:00 | 124 | 70 | 20:00:00 | 68 | 20:35:03 | 68 | 65 | 20:59:05 | 59 | 20:04:03 | 64.7 | 0 | 4.0 | 190 | 0 | 74 | 73 | 75 | 74 |
| 05/04/2026 | 22:00:00 | 124 | 68 | 21:00:00 | 64 | 22:00:00 | 64 | 77 | 22:00:00 | 65 | 21:00:00 | 76.52 | 0 | 3.0 | 149 | 0 | 72 | 71 | 73 | 73 |
| 05/04/2026 | 23:00:00 | 124 | 64 | 22:00:00 | 62 | 22:38:00 | 63 | 81 | 22:59:04 | 77 | 22:00:00 | 80.8 | 0 | 3.2 | 140 | 0 | 71 | 70 | 72 | 72 |
| 05/05/2026 | 0:00:00 | 125 | 63 | 23:00:02 | 61 | 23:58:00 | 61 | 86 | 23:58:01 | 81 | 23:00:01 | 85.1 | 0 | 2.7 | 158 | 0 | 69 | 69 | 72 | 71 |
| 05/05/2026 | 1:00:00 | 125 | 62 | 0:54:03 | 61 | 0:30:04 | 62 | 86 | 0:30:04 | 82 | 0:59:05 | 82 | 0 | 3.2 | 153 | 0 | 68 | 68 | 71 | 70 |
| 05/05/2026 | 2:00:00 | 125 | 63 | 1:18:02 | 62 | 1:00:02 | 63 | 82 | 1:00:01 | 77 | 1:44:01 | 77.76 | 0 | 6.3 | 165 | 0 | 68 | 67 | 70 | 70 |
| 05/05/2026 | 3:00:00 | 125 | 63 | 2:00:00 | 62 | 2:53:05 | 62 | 80 | 2:53:05 | 78 | 2:00:05 | 79.15 | 0 | 7.0 | 170 | 0 | 67 | 67 | 69 | 69 |
| 05/05/2026 | 4:00:00 | 125 | 62 | 3:04:00 | 61 | 3:40:03 | 62 | 80 | 3:12:04 | 79 | 3:30:05 | 78.94 | 0 | 7.2 | 159 | 0 | 66 | 66 | 69 | 68 |
| 05/05/2026 | 5:00:00 | 125 | 62 | 4:02:04 | 61 | 4:42:02 | 61 | 81 | 4:55:04 | 79 | 4:02:04 | 81.2 | 0 | 7.6 | 164 | 0 | 66 | 66 | 68 | 68 |
| 05/05/2026 | 6:00:00 | 125 | 62 | 5:59:01 | 61 | 5:05:03 | 62 | 82 | 5:06:01 | 80 | 5:59:05 | 79.68 | 0 | 8.7 | 172 | 1 | 65 | 65 | 68 | 67 |
| 05/05/2026 | 7:00:00 | 125 | 66 | 6:56:04 | 62 | 6:00:03 | 66 | 80 | 6:11:00 | 74 | 6:58:00 | 75 | 0 | 10.5 | 173 | 13 | 65 | 65 | 67 | 67 |
| 05/05/2026 | 8:00:00 | 125 | 69 | 7:57:00 | 66 | 7:08:00 | 68 | 76 | 7:10:04 | 73 | 7:50:00 | 73.53 | 0 | 9.6 | 178 | 25 | 66 | 67 | 67 | 67 |
| 05/05/2026 | 9:00:00 | 125 | 69 | 8:42:03 | 68 | 8:07:04 | 69 | 76 | 8:59:05 | 73 | 8:00:04 | 76.3 | 0 | 8.5 | 183 | 17 | 67 | 68 | 67 | 68 |
| 05/05/2026 | 10:00:00 | 125 | 70 | 9:38:04 | 69 | 9:02:01 | 69 | 81 | 9:58:05 | 75 | 9:37:01 | 81.1 | 0 | 9.8 | 183 | 12 | 68 | 69 | 68 | 68 |
| 05/05/2026 | 11:00:00 | 125 | 74 | 10:50:03 | 69 | 10:00:00 | 72 | 81 | 10:03:05 | 73 | 10:51:04 | 76.47 | 0 | 13.7 | 169 | 47 | 69 | 71 | 68 | 69 |
| 05/05/2026 | 12:00:00 | 125 | 74 | 11:26:05 | 72 | 11:04:00 | 73 | 77 | 11:04:03 | 72 | 11:27:04 | 74.53 | 0 | 12.6 | 179 | 27 | 72 | 72 | 69 | 70 |
| 05/05/2026 | 13:00:00 | 125 | 74 | 12:46:00 | 72 | 12:24:01 | 74 | 80 | 12:23:04 | 74 | 12:01:04 | 76.87 | 0 | 13.4 | 175 | 21 | 72 | 72 | 70 | 70 |
| 05/05/2026 | 14:00:00 | 125 | 79 | 13:58:01 | 74 | 13:00:01 | 79 | 77 | 13:08:02 | 69 | 13:59:05 | 69.41 | 0 | 12.8 | 174 | 35 | 73 | 73 | 71 | 71 |
| 05/05/2026 | 15:00:00 | 125 | 79 | 14:00:00 | 72 | 14:59:04 | 72 | 89 | 15:00:00 | 69 | 14:00:01 | 88.6 | 0 | 12.8 | 183 | 22 | 74 | 74 | 71 | 72 |
| 05/05/2026 | 16:00:00 | 125 | 74 | 16:00:00 | 71 | 15:16:05 | 74 | 92 | 15:15:00 | 83 | 15:59:05 | 82.9 | 0 | 7.8 | 176 | 10 | 74 | 73 | 72 | 72 |
| 05/05/2026 | 17:00:00 | 125 | 76 | 17:00:00 | 74 | 16:00:05 | 76 | 83 | 16:02:00 | 75 | 16:59:03 | 75.18 | 0 | 9.4 | 159 | 13 | 73 | 73 | 72 | 72 |
| 05/05/2026 | 18:00:00 | 125 | 76 | 17:01:05 | 76 | 17:56:04 | 76 | 75 | 17:00:01 | 74 | 17:05:03 | 74.6 | 0 | 10.5 | 159 | 5 | 73 | 73 | 72 | 72 |
| 05/05/2026 | 19:00:00 | 125 | 76 | 18:00:00 | 75 | 18:53:01 | 75 | 77 | 18:58:04 | 74 | 18:02:05 | 77.01 | 0 | 10.2 | 162 | 2 | 72 | 72 | 72 | 72 |
| 05/05/2026 | 20:00:00 | 125 | 75 | 19:06:05 | 75 | 19:54:02 | 75 | 79 | 19:56:00 | 77 | 19:06:04 | 78.51 | 0 | 7.7 | 165 | 0 | 72 | 72 | 71 | 71 |
| 05/05/2026 | 21:00:00 | 125 | 75 | 20:48:02 | 74 | 20:12:00 | 75 | 80 | 20:59:02 | 78 | 20:02:00 | 79.54 | 0 | 7.6 | 168 | 0 | 72 | 71 | 71 | 71 |
| 05/05/2026 | 22:00:00 | 125 | 75 | 21:35:04 | 75 | 21:00:00 | 75 | 80 | 22:00:00 | 79 | 21:24:04 | 80.2 | 0 | 8.3 | 175 | 0 | 71 | 71 | 71 | 71 |
| 05/05/2026 | 23:00:00 | 125 | 75 | 22:34:00 | 75 | 22:12:00 | 75 | 81 | 22:50:00 | 80 | 22:17:05 | 80.9 | 0 | 9.1 | 179 | 0 | 71 | 71 | 71 | 71 |
| 05/06/2026 | 0:00:00 | 126 | 75 | 23:33:04 | 75 | 23:17:01 | 75 | 82 | 23:45:02 | 81 | 23:08:00 | 81.8 | 0 | 10.4 | 179 | 0 | 71 | 71 | 71 | 71 |
| 05/06/2026 | 1:00:00 | 126 | 75 | 0:01:03 | 75 | 0:58:03 | 75 | 84 | 0:58:04 | 82 | 0:00:02 | 83.8 | 0 | 10.1 | 188 | 0 | 71 | 71 | 71 | 71 |
| 05/06/2026 | 2:00:00 | 126 | 75 | 1:11:04 | 74 | 1:51:01 | 74 | 86 | 1:51:01 | 84 | 1:04:01 | 85.5 | 0 | 10.9 | 190 | 0 | 71 | 71 | 71 | 71 |
| 05/06/2026 | 3:00:00 | 126 | 74 | 2:00:00 | 74 | 2:59:01 | 74 | 87 | 2:59:01 | 85 | 2:02:04 | 87.1 | 0 | 10.5 | 193 | 0 | 71 | 71 | 71 | 71 |
| 05/06/2026 | 4:00:00 | 126 | 74 | 3:15:04 | 74 | 3:57:03 | 74 | 88 | 3:58:02 | 87 | 3:02:04 | 88 | 0 | 9.5 | 198 | 0 | 71 | 71 | 71 | 71 |
| 05/06/2026 | 5:00:00 | 126 | 74 | 4:00:00 | 73 | 4:58:00 | 73 | 90 | 4:59:05 | 88 | 4:00:00 | 90 | 0 | 7.8 | 196 | 0 | 71 | 71 | 71 | 71 |
| 05/06/2026 | 6:00:00 | 126 | 73 | 5:02:05 | 69 | 5:59:05 | 69 | 91 | 5:29:03 | 87 | 5:51:02 | 90.4 | 0 | 7.2 | 203 | 0 | 71 | 71 | 71 | 71 |
| 05/06/2026 | 7:00:00 | 126 | 69 | 6:00:00 | 65 | 6:24:01 | 65 | 97 | 6:50:02 | 90 | 6:00:02 | 96.3 | 0.01 | 3.9 | 344 | 2 | 70 | 70 | 71 | 71 |
| 05/06/2026 | 8:00:00 | 126 | 66 | 7:11:05 | 65 | 7:59:05 | 65 | 97 | 7:57:03 | 96 | 7:03:00 | 96.6 | 0.03 | 2.6 | 15 | 2 | 70 | 70 | 70 | 70 |
| 05/06/2026 | 9:00:00 | 126 | 65 | 8:04:02 | 61 | 8:59:05 | 61 | 97 | 8:04:03 | 96 | 8:58:01 | 95.8 | 0 | 6.3 | 330 | 9 | 70 | 69 | 70 | 70 |
| 05/06/2026 | 10:00:00 | 126 | 61 | 9:00:05 | 58 | 9:34:03 | 58 | 96 | 9:52:03 | 94 | 9:29:03 | 95.5 | 0 | 7.7 | 334 | 10 | 69 | 69 | 70 | 70 |
| 05/06/2026 | 11:00:00 | 126 | 60 | 10:20:02 | 58 | 10:00:03 | 60 | 97 | 10:20:02 | 94 | 10:59:00 | 94.9 | 0 | 7.3 | 345 | 24 | 69 | 69 | 70 | 69 |
| 05/06/2026 | 12:00:00 | 126 | 60 | 11:15:04 | 59 | 11:57:00 | 59 | 96 | 11:15:04 | 93 | 11:29:01 | 94.8 | 0 | 6.5 | 333 | 22 | 69 | 69 | 69 | 69 |
| 05/06/2026 | 13:00:00 | 126 | 60 | 12:47:03 | 59 | 12:06:03 | 60 | 95 | 12:10:02 | 93 | 12:49:01 | 93.2 | 0 | 7.2 | 352 | 21 | 69 | 69 | 69 | 69 |
| 05/06/2026 | 14:00:00 | 126 | 60 | 13:42:04 | 59 | 13:30:05 | 59 | 95 | 13:16:04 | 90 | 13:45:04 | 92.3 | 0 | 7.7 | 349 | 22 | 69 | 69 | 69 | 69 |
| 05/06/2026 | 15:00:00 | 126 | 59 | 14:00:02 | 56 | 14:51:00 | 56 | 95 | 14:44:01 | 92 | 14:01:02 | 93.7 | 0 | 10.0 | 343 | 10 | 69 | 68 | 69 | 69 |
| 05/06/2026 | 16:00:00 | 126 | 58 | 15:27:03 | 56 | 15:00:00 | 57 | 94 | 15:03:05 | 89 | 15:45:05 | 90.2 | 0 | 9.8 | 17 | 13 | 68 | 67 | 69 | 69 |
| 05/06/2026 | 17:00:00 | 126 | 58 | 16:59:03 | 57 | 16:01:02 | 58 | 92 | 16:39:03 | 90 | 16:01:00 | 91.4 | 0 | 5.6 | 29 | 5 | 67 | 67 | 68 | 68 |
| 05/06/2026 | 18:00:00 | 126 | 59 | 17:55:01 | 58 | 17:00:00 | 59 | 92 | 17:33:05 | 91 | 17:03:05 | 91.9 | 0 | 5.0 | 6 | 7 | 67 | 67 | 68 | 68 |
| 05/06/2026 | 19:00:00 | 126 | 59 | 18:03:00 | 58 | 18:59:03 | 58 | 93 | 18:45:01 | 91 | 18:07:01 | 92.2 | 0 | 6.8 | 357 | 2 | 66 | 66 | 68 | 68 |
| 05/06/2026 | 20:00:00 | 126 | 58 | 19:00:01 | 57 | 19:58:03 | 57 | 93 | 19:49:03 | 92 | 19:14:02 | 93 | 0 | 7.7 | 2 | 0 | 66 | 65 | 67 | 67 |
| 05/06/2026 | 21:00:00 | 126 | 57 | 20:00:03 | 57 | 20:27:02 | 57 | 94 | 20:26:00 | 92 | 20:59:00 | 91.8 | 0 | 8.0 | 7 | 0 | 65 | 65 | 67 | 67 |
| 05/06/2026 | 22:00:00 | 126 | 57 | 21:31:02 | 57 | 21:58:04 | 57 | 92 | 21:03:05 | 91 | 21:19:00 | 92 | 0 | 7.8 | 9 | 0 | 64 | 64 | 67 | 66 |
| 05/06/2026 | 23:00:00 | 126 | 57 | 22:00:02 | 56 | 22:39:03 | 56 | 93 | 22:47:00 | 92 | 22:03:01 | 92.7 | 0 | 7.8 | 10 | 0 | 64 | 64 | 66 | 66 |
| 05/07/2026 | 0:00:00 | 127 | 56 | 23:00:04 | 56 | 23:53:05 | 56 | 94 | 23:43:02 | 93 | 23:00:00 | 93.1 | 0 | 6.3 | 358 | 0 | 64 | 63 | 66 | 66 |
| 05/07/2026 | 1:00:00 | 127 | 56 | 0:00:03 | 55 | 0:54:03 | 55 | 96 | 1:00:00 | 93 | 0:01:04 | 96.4 | 0 | 6.1 | 9 | 0 | 63 | 63 | 65 | 65 |
| 05/07/2026 | 2:00:00 | 127 | 56 | 1:36:04 | 55 | 1:55:02 | 55 | 97 | 1:56:05 | 96 | 1:38:05 | 97.3 | 0.26 | 6.3 | 356 | 0 | 63 | 62 | 65 | 65 |
| Average | 64.99 | 63.15 | 64.01 | 77.36 | 70.84 | 74.09 | 0 | 6.07 | 18.33 | 67.77 | 67.77 | 68.02 | 68.06 | |||||||
| Total | 0.76 |